sensor_id;sensor_type;location;lat;lon;timestamp;P1;durP1;ratioP1;P2;durP2;ratioP2
40827;SDS011;26549;50.918;5.338;2023-06-10T00:01:45;8.20;;;5.78;;
40827;SDS011;26549;50.918;5.338;2023-06-10T00:04:12;5.95;;;4.63;;
40827;SDS011;26549;50.918;5.338;2023-06-10T00:06:41;7.10;;;4.57;;
40827;SDS011;26549;50.918;5.338;2023-06-10T00:09:14;5.47;;;4.45;;
40827;SDS011;26549;50.918;5.338;2023-06-10T00:11:41;10.23;;;5.28;;
40827;SDS011;26549;50.918;5.338;2023-06-10T00:14:07;5.78;;;4.43;;
40827;SDS011;26549;50.918;5.338;2023-06-10T00:16:33;8.25;;;5.00;;
40827;SDS011;26549;50.918;5.338;2023-06-10T00:19:00;7.57;;;4.78;;
40827;SDS011;26549;50.918;5.338;2023-06-10T00:21:29;6.32;;;4.82;;
40827;SDS011;26549;50.918;5.338;2023-06-10T00:24:02;6.20;;;4.18;;
40827;SDS011;26549;50.918;5.338;2023-06-10T00:26:30;7.50;;;4.68;;
40827;SDS011;26549;50.918;5.338;2023-06-10T00:28:57;7.80;;;5.18;;
40827;SDS011;26549;50.918;5.338;2023-06-10T00:31:23;4.72;;;4.25;;
40827;SDS011;26549;50.918;5.338;2023-06-10T00:33:48;7.78;;;4.80;;
40827;SDS011;26549;50.918;5.338;2023-06-10T00:36:14;9.13;;;5.13;;
40827;SDS011;26549;50.918;5.338;2023-06-10T00:38:40;5.13;;;4.63;;
40827;SDS011;26549;50.918;5.338;2023-06-10T00:41:06;6.10;;;4.60;;
40827;SDS011;26549;50.918;5.338;2023-06-10T00:43:32;7.13;;;5.18;;
40827;SDS011;26549;50.918;5.338;2023-06-10T00:45:58;12.57;;;5.53;;
40827;SDS011;26549;50.918;5.338;2023-06-10T00:48:25;7.25;;;5.20;;
40827;SDS011;26549;50.918;5.338;2023-06-10T00:50:51;7.18;;;5.25;;
40827;SDS011;26549;50.918;5.338;2023-06-10T00:53:17;5.97;;;5.07;;
40827;SDS011;26549;50.918;5.338;2023-06-10T00:55:43;9.18;;;5.90;;
40827;SDS011;26549;50.918;5.338;2023-06-10T00:58:09;8.43;;;5.57;;
40827;SDS011;26549;50.918;5.338;2023-06-10T01:00:35;6.50;;;5.55;;
40827;SDS011;26549;50.918;5.338;2023-06-10T01:03:01;7.05;;;5.22;;
40827;SDS011;26549;50.918;5.338;2023-06-10T01:05:32;8.57;;;5.82;;
40827;SDS011;26549;50.918;5.338;2023-06-10T01:11:00;7.30;;;5.35;;
40827;SDS011;26549;50.918;5.338;2023-06-10T01:13:28;7.68;;;4.32;;
40827;SDS011;26549;50.918;5.338;2023-06-10T01:15:57;7.32;;;5.70;;
40827;SDS011;26549;50.918;5.338;2023-06-10T01:18:23;9.05;;;5.38;;
40827;SDS011;26549;50.918;5.338;2023-06-10T01:20:55;12.63;;;4.95;;
40827;SDS011;26549;50.918;5.338;2023-06-10T01:23:22;10.90;;;4.78;;
40827;SDS011;26549;50.918;5.338;2023-06-10T01:25:53;7.43;;;4.70;;
40827;SDS011;26549;50.918;5.338;2023-06-10T01:28:31;8.05;;;5.35;;
40827;SDS011;26549;50.918;5.338;2023-06-10T01:31:26;9.48;;;5.20;;
40827;SDS011;26549;50.918;5.338;2023-06-10T01:33:59;6.90;;;5.18;;
40827;SDS011;26549;50.918;5.338;2023-06-10T01:36:27;8.85;;;5.40;;
40827;SDS011;26549;50.918;5.338;2023-06-10T01:38:54;10.00;;;5.45;;
40827;SDS011;26549;50.918;5.338;2023-06-10T01:41:21;6.68;;;5.07;;
40827;SDS011;26549;50.918;5.338;2023-06-10T01:43:48;7.85;;;4.57;;
40827;SDS011;26549;50.918;5.338;2023-06-10T01:46:14;8.20;;;5.32;;
40827;SDS011;26549;50.918;5.338;2023-06-10T01:48:44;10.45;;;5.50;;
40827;SDS011;26549;50.918;5.338;2023-06-10T01:51:10;7.35;;;4.70;;
40827;SDS011;26549;50.918;5.338;2023-06-10T01:53:37;6.07;;;5.40;;
40827;SDS011;26549;50.918;5.338;2023-06-10T01:56:02;6.40;;;5.25;;
40827;SDS011;26549;50.918;5.338;2023-06-10T01:58:28;7.57;;;4.93;;
40827;SDS011;26549;50.918;5.338;2023-06-10T02:00:54;8.10;;;5.38;;
40827;SDS011;26549;50.918;5.338;2023-06-10T02:03:20;7.95;;;5.53;;
40827;SDS011;26549;50.918;5.338;2023-06-10T02:05:45;5.78;;;5.18;;
40827;SDS011;26549;50.918;5.338;2023-06-10T02:08:11;8.80;;;5.40;;
40827;SDS011;26549;50.918;5.338;2023-06-10T02:10:37;9.43;;;5.43;;
40827;SDS011;26549;50.918;5.338;2023-06-10T02:13:03;6.35;;;5.75;;
40827;SDS011;26549;50.918;5.338;2023-06-10T02:15:28;7.40;;;5.53;;
40827;SDS011;26549;50.918;5.338;2023-06-10T02:17:54;6.80;;;5.43;;
40827;SDS011;26549;50.918;5.338;2023-06-10T02:20:21;7.05;;;5.43;;
40827;SDS011;26549;50.918;5.338;2023-06-10T02:22:48;8.48;;;5.57;;
40827;SDS011;26549;50.918;5.338;2023-06-10T02:25:14;6.70;;;5.68;;
40827;SDS011;26549;50.918;5.338;2023-06-10T02:27:40;8.93;;;6.00;;
40827;SDS011;26549;50.918;5.338;2023-06-10T02:30:06;9.18;;;5.53;;
40827;SDS011;26549;50.918;5.338;2023-06-10T02:32:34;6.95;;;5.53;;
40827;SDS011;26549;50.918;5.338;2023-06-10T02:35:00;8.07;;;5.72;;
40827;SDS011;26549;50.918;5.338;2023-06-10T02:37:26;7.70;;;5.90;;
40827;SDS011;26549;50.918;5.338;2023-06-10T02:39:52;10.77;;;5.80;;
40827;SDS011;26549;50.918;5.338;2023-06-10T02:42:18;8.65;;;5.57;;
40827;SDS011;26549;50.918;5.338;2023-06-10T02:44:44;9.57;;;6.18;;
40827;SDS011;26549;50.918;5.338;2023-06-10T02:47:09;8.40;;;6.40;;
40827;SDS011;26549;50.918;5.338;2023-06-10T02:49:35;9.82;;;6.35;;
40827;SDS011;26549;50.918;5.338;2023-06-10T02:52:01;12.20;;;5.68;;
40827;SDS011;26549;50.918;5.338;2023-06-10T02:54:27;11.02;;;6.55;;
40827;SDS011;26549;50.918;5.338;2023-06-10T02:56:53;8.30;;;5.90;;
40827;SDS011;26549;50.918;5.338;2023-06-10T02:59:20;11.38;;;6.40;;
40827;SDS011;26549;50.918;5.338;2023-06-10T03:01:47;7.72;;;5.70;;
40827;SDS011;26549;50.918;5.338;2023-06-10T03:04:12;10.85;;;6.43;;
40827;SDS011;26549;50.918;5.338;2023-06-10T03:06:41;8.93;;;6.65;;
40827;SDS011;26549;50.918;5.338;2023-06-10T03:09:07;7.93;;;6.60;;
40827;SDS011;26549;50.918;5.338;2023-06-10T03:11:33;10.63;;;7.47;;
40827;SDS011;26549;50.918;5.338;2023-06-10T03:13:59;9.75;;;6.32;;
40827;SDS011;26549;50.918;5.338;2023-06-10T03:16:24;8.00;;;5.82;;
40827;SDS011;26549;50.918;5.338;2023-06-10T03:18:50;9.30;;;6.40;;
40827;SDS011;26549;50.918;5.338;2023-06-10T03:21:16;9.20;;;7.35;;
40827;SDS011;26549;50.918;5.338;2023-06-10T03:23:42;7.50;;;6.00;;
40827;SDS011;26549;50.918;5.338;2023-06-10T03:26:08;8.10;;;6.30;;
40827;SDS011;26549;50.918;5.338;2023-06-10T03:28:35;8.65;;;6.90;;
40827;SDS011;26549;50.918;5.338;2023-06-10T03:31:03;10.68;;;6.60;;
40827;SDS011;26549;50.918;5.338;2023-06-10T03:33:28;7.57;;;6.78;;
40827;SDS011;26549;50.918;5.338;2023-06-10T03:35:55;7.38;;;6.28;;
40827;SDS011;26549;50.918;5.338;2023-06-10T03:38:20;7.55;;;6.45;;
40827;SDS011;26549;50.918;5.338;2023-06-10T03:40:46;9.05;;;6.30;;
40827;SDS011;26549;50.918;5.338;2023-06-10T03:43:12;8.00;;;6.40;;
40827;SDS011;26549;50.918;5.338;2023-06-10T03:45:38;8.18;;;6.20;;
40827;SDS011;26549;50.918;5.338;2023-06-10T03:48:04;11.18;;;6.65;;
40827;SDS011;26549;50.918;5.338;2023-06-10T03:50:31;9.23;;;6.53;;
40827;SDS011;26549;50.918;5.338;2023-06-10T03:52:57;7.40;;;5.95;;
40827;SDS011;26549;50.918;5.338;2023-06-10T03:55:23;10.55;;;6.15;;
40827;SDS011;26549;50.918;5.338;2023-06-10T03:57:49;7.85;;;6.15;;
40827;SDS011;26549;50.918;5.338;2023-06-10T04:00:15;9.65;;;6.47;;
40827;SDS011;26549;50.918;5.338;2023-06-10T04:02:42;6.90;;;5.63;;
40827;SDS011;26549;50.918;5.338;2023-06-10T04:05:12;7.10;;;6.38;;
40827;SDS011;26549;50.918;5.338;2023-06-10T04:07:39;8.73;;;6.88;;
40827;SDS011;26549;50.918;5.338;2023-06-10T04:10:09;9.57;;;6.10;;
40827;SDS011;26549;50.918;5.338;2023-06-10T04:12:38;8.32;;;5.50;;
40827;SDS011;26549;50.918;5.338;2023-06-10T04:15:04;13.27;;;6.05;;
40827;SDS011;26549;50.918;5.338;2023-06-10T04:17:31;9.70;;;6.28;;
40827;SDS011;26549;50.918;5.338;2023-06-10T04:19:57;11.93;;;7.03;;
40827;SDS011;26549;50.918;5.338;2023-06-10T04:22:25;7.93;;;6.55;;
40827;SDS011;26549;50.918;5.338;2023-06-10T04:24:52;8.18;;;6.00;;
40827;SDS011;26549;50.918;5.338;2023-06-10T04:27:17;7.55;;;6.72;;
40827;SDS011;26549;50.918;5.338;2023-06-10T04:29:44;10.35;;;6.15;;
40827;SDS011;26549;50.918;5.338;2023-06-10T04:32:09;6.85;;;6.15;;
40827;SDS011;26549;50.918;5.338;2023-06-10T04:34:36;8.48;;;6.65;;
40827;SDS011;26549;50.918;5.338;2023-06-10T04:37:04;10.45;;;7.07;;
40827;SDS011;26549;50.918;5.338;2023-06-10T04:39:30;6.65;;;5.72;;
40827;SDS011;26549;50.918;5.338;2023-06-10T04:41:56;8.30;;;6.38;;
40827;SDS011;26549;50.918;5.338;2023-06-10T04:44:22;9.45;;;6.47;;
40827;SDS011;26549;50.918;5.338;2023-06-10T04:46:48;8.52;;;5.72;;
40827;SDS011;26549;50.918;5.338;2023-06-10T04:49:13;11.40;;;6.50;;
40827;SDS011;26549;50.918;5.338;2023-06-10T04:51:40;6.97;;;6.18;;
40827;SDS011;26549;50.918;5.338;2023-06-10T04:54:07;10.77;;;6.95;;
40827;SDS011;26549;50.918;5.338;2023-06-10T04:56:32;7.35;;;5.88;;
40827;SDS011;26549;50.918;5.338;2023-06-10T04:58:59;9.25;;;6.13;;
40827;SDS011;26549;50.918;5.338;2023-06-10T05:01:25;8.13;;;5.95;;
40827;SDS011;26549;50.918;5.338;2023-06-10T05:03:51;9.40;;;6.70;;
40827;SDS011;26549;50.918;5.338;2023-06-10T05:06:17;7.43;;;6.60;;
40827;SDS011;26549;50.918;5.338;2023-06-10T05:08:43;9.45;;;5.90;;
40827;SDS011;26549;50.918;5.338;2023-06-10T05:11:09;8.70;;;6.32;;
40827;SDS011;26549;50.918;5.338;2023-06-10T05:13:35;9.52;;;6.20;;
40827;SDS011;26549;50.918;5.338;2023-06-10T05:16:00;7.60;;;6.53;;
40827;SDS011;26549;50.918;5.338;2023-06-10T05:18:27;8.73;;;7.45;;
40827;SDS011;26549;50.918;5.338;2023-06-10T05:20:53;8.90;;;6.80;;
40827;SDS011;26549;50.918;5.338;2023-06-10T05:23:19;12.15;;;6.45;;
40827;SDS011;26549;50.918;5.338;2023-06-10T05:25:45;8.07;;;7.13;;
40827;SDS011;26549;50.918;5.338;2023-06-10T05:28:11;12.65;;;7.30;;
40827;SDS011;26549;50.918;5.338;2023-06-10T05:30:37;11.48;;;7.57;;
40827;SDS011;26549;50.918;5.338;2023-06-10T05:33:03;8.98;;;6.85;;
40827;SDS011;26549;50.918;5.338;2023-06-10T05:35:30;9.15;;;6.70;;
40827;SDS011;26549;50.918;5.338;2023-06-10T05:37:55;9.20;;;7.10;;
40827;SDS011;26549;50.918;5.338;2023-06-10T05:40:21;7.70;;;6.93;;
40827;SDS011;26549;50.918;5.338;2023-06-10T05:42:47;8.20;;;7.38;;
40827;SDS011;26549;50.918;5.338;2023-06-10T05:45:13;11.23;;;7.53;;
40827;SDS011;26549;50.918;5.338;2023-06-10T05:47:39;12.32;;;7.78;;
40827;SDS011;26549;50.918;5.338;2023-06-10T05:50:05;10.73;;;6.60;;
40827;SDS011;26549;50.918;5.338;2023-06-10T05:52:33;9.30;;;6.75;;
40827;SDS011;26549;50.918;5.338;2023-06-10T05:55:03;10.52;;;7.30;;
40827;SDS011;26549;50.918;5.338;2023-06-10T05:57:31;11.27;;;6.25;;
40827;SDS011;26549;50.918;5.338;2023-06-10T05:59:57;15.20;;;8.60;;
40827;SDS011;26549;50.918;5.338;2023-06-10T06:02:23;9.85;;;6.18;;
40827;SDS011;26549;50.918;5.338;2023-06-10T06:04:49;11.38;;;6.32;;
40827;SDS011;26549;50.918;5.338;2023-06-10T06:07:14;12.98;;;6.43;;
40827;SDS011;26549;50.918;5.338;2023-06-10T06:09:40;13.35;;;6.95;;
40827;SDS011;26549;50.918;5.338;2023-06-10T06:12:06;10.95;;;6.10;;
40827;SDS011;26549;50.918;5.338;2023-06-10T06:14:36;12.55;;;6.10;;
40827;SDS011;26549;50.918;5.338;2023-06-10T06:17:04;8.65;;;5.63;;
40827;SDS011;26549;50.918;5.338;2023-06-10T06:19:32;11.68;;;6.07;;
40827;SDS011;26549;50.918;5.338;2023-06-10T06:21:58;6.45;;;5.45;;
40827;SDS011;26549;50.918;5.338;2023-06-10T06:24:24;7.78;;;5.70;;
40827;SDS011;26549;50.918;5.338;2023-06-10T06:26:49;7.90;;;6.05;;
40827;SDS011;26549;50.918;5.338;2023-06-10T06:29:15;7.43;;;4.97;;
40827;SDS011;26549;50.918;5.338;2023-06-10T06:31:41;7.60;;;5.25;;
40827;SDS011;26549;50.918;5.338;2023-06-10T06:34:07;8.73;;;5.00;;
40827;SDS011;26549;50.918;5.338;2023-06-10T06:36:33;9.95;;;5.35;;
40827;SDS011;26549;50.918;5.338;2023-06-10T06:38:59;8.73;;;5.40;;
40827;SDS011;26549;50.918;5.338;2023-06-10T06:41:27;7.93;;;4.95;;
40827;SDS011;26549;50.918;5.338;2023-06-10T06:43:54;7.60;;;5.13;;
40827;SDS011;26549;50.918;5.338;2023-06-10T06:46:20;5.95;;;4.57;;
40827;SDS011;26549;50.918;5.338;2023-06-10T06:48:47;11.07;;;4.43;;
40827;SDS011;26549;50.918;5.338;2023-06-10T06:51:13;6.60;;;5.05;;
40827;SDS011;26549;50.918;5.338;2023-06-10T06:53:39;6.90;;;4.85;;
40827;SDS011;26549;50.918;5.338;2023-06-10T06:56:13;12.23;;;5.18;;
40827;SDS011;26549;50.918;5.338;2023-06-10T06:58:38;9.10;;;5.60;;
40827;SDS011;26549;50.918;5.338;2023-06-10T07:01:04;5.57;;;4.43;;
40827;SDS011;26549;50.918;5.338;2023-06-10T07:03:30;8.75;;;5.30;;
40827;SDS011;26549;50.918;5.338;2023-06-10T07:05:56;6.55;;;5.28;;
40827;SDS011;26549;50.918;5.338;2023-06-10T07:08:21;7.30;;;6.00;;
40827;SDS011;26549;50.918;5.338;2023-06-10T07:10:47;9.43;;;4.82;;
40827;SDS011;26549;50.918;5.338;2023-06-10T07:13:14;9.38;;;5.32;;
40827;SDS011;26549;50.918;5.338;2023-06-10T07:15:40;6.97;;;5.05;;
40827;SDS011;26549;50.918;5.338;2023-06-10T07:18:05;11.63;;;5.43;;
40827;SDS011;26549;50.918;5.338;2023-06-10T07:20:31;9.77;;;4.97;;
40827;SDS011;26549;50.918;5.338;2023-06-10T07:22:57;8.35;;;4.82;;
40827;SDS011;26549;50.918;5.338;2023-06-10T07:25:22;6.65;;;4.72;;
40827;SDS011;26549;50.918;5.338;2023-06-10T07:27:48;6.05;;;4.90;;
40827;SDS011;26549;50.918;5.338;2023-06-10T07:30:14;11.05;;;5.28;;
40827;SDS011;26549;50.918;5.338;2023-06-10T07:32:40;7.72;;;5.30;;
40827;SDS011;26549;50.918;5.338;2023-06-10T07:35:07;6.57;;;4.88;;
40827;SDS011;26549;50.918;5.338;2023-06-10T07:37:35;7.32;;;4.75;;
40827;SDS011;26549;50.918;5.338;2023-06-10T07:40:04;8.55;;;4.70;;
40827;SDS011;26549;50.918;5.338;2023-06-10T07:42:34;9.00;;;4.97;;
40827;SDS011;26549;50.918;5.338;2023-06-10T07:45:01;7.40;;;5.18;;
40827;SDS011;26549;50.918;5.338;2023-06-10T07:47:28;8.25;;;5.18;;
40827;SDS011;26549;50.918;5.338;2023-06-10T07:49:54;6.32;;;5.22;;
40827;SDS011;26549;50.918;5.338;2023-06-10T07:52:20;9.20;;;5.70;;
40827;SDS011;26549;50.918;5.338;2023-06-10T07:54:46;8.20;;;5.82;;
40827;SDS011;26549;50.918;5.338;2023-06-10T07:57:11;8.85;;;5.00;;
40827;SDS011;26549;50.918;5.338;2023-06-10T07:59:37;7.45;;;5.13;;
40827;SDS011;26549;50.918;5.338;2023-06-10T08:02:03;6.70;;;4.75;;
40827;SDS011;26549;50.918;5.338;2023-06-10T08:04:30;12.20;;;6.25;;
40827;SDS011;26549;50.918;5.338;2023-06-10T08:06:56;9.10;;;5.30;;
40827;SDS011;26549;50.918;5.338;2023-06-10T08:09:22;5.38;;;4.43;;
40827;SDS011;26549;50.918;5.338;2023-06-10T08:11:48;12.88;;;5.05;;
40827;SDS011;26549;50.918;5.338;2023-06-10T08:14:14;7.60;;;5.55;;
40827;SDS011;26549;50.918;5.338;2023-06-10T08:16:41;6.25;;;4.35;;
40827;SDS011;26549;50.918;5.338;2023-06-10T08:19:08;7.13;;;5.38;;
40827;SDS011;26549;50.918;5.338;2023-06-10T08:21:34;6.10;;;4.32;;
40827;SDS011;26549;50.918;5.338;2023-06-10T08:24:02;6.43;;;4.28;;
40827;SDS011;26549;50.918;5.338;2023-06-10T08:26:28;6.65;;;4.82;;
40827;SDS011;26549;50.918;5.338;2023-06-10T08:28:54;11.32;;;5.00;;
40827;SDS011;26549;50.918;5.338;2023-06-10T08:31:20;13.43;;;5.07;;
40827;SDS011;26549;50.918;5.338;2023-06-10T08:33:46;9.05;;;3.95;;
40827;SDS011;26549;50.918;5.338;2023-06-10T08:36:12;12.68;;;4.93;;
40827;SDS011;26549;50.918;5.338;2023-06-10T08:38:38;5.85;;;4.40;;
40827;SDS011;26549;50.918;5.338;2023-06-10T08:41:04;7.40;;;4.50;;
40827;SDS011;26549;50.918;5.338;2023-06-10T08:46:04;7.70;;;4.95;;
40827;SDS011;26549;50.918;5.338;2023-06-10T08:48:34;4.78;;;3.80;;
40827;SDS011;26549;50.918;5.338;2023-06-10T08:51:03;9.93;;;4.35;;
40827;SDS011;26549;50.918;5.338;2023-06-10T08:53:31;5.13;;;4.43;;
40827;SDS011;26549;50.918;5.338;2023-06-10T08:55:59;6.70;;;4.20;;
40827;SDS011;26549;50.918;5.338;2023-06-10T08:58:29;7.30;;;4.10;;
40827;SDS011;26549;50.918;5.338;2023-06-10T09:00:55;6.25;;;4.57;;
40827;SDS011;26549;50.918;5.338;2023-06-10T09:03:21;6.75;;;4.20;;
40827;SDS011;26549;50.918;5.338;2023-06-10T09:05:49;5.50;;;4.22;;
40827;SDS011;26549;50.918;5.338;2023-06-10T09:08:15;8.00;;;4.35;;
40827;SDS011;26549;50.918;5.338;2023-06-10T09:10:44;5.82;;;4.05;;
40827;SDS011;26549;50.918;5.338;2023-06-10T09:13:10;6.40;;;4.75;;
40827;SDS011;26549;50.918;5.338;2023-06-10T09:15:36;8.55;;;4.80;;
40827;SDS011;26549;50.918;5.338;2023-06-10T09:18:02;6.13;;;4.38;;
40827;SDS011;26549;50.918;5.338;2023-06-10T09:20:32;7.88;;;4.63;;
40827;SDS011;26549;50.918;5.338;2023-06-10T09:22:59;5.53;;;4.38;;
40827;SDS011;26549;50.918;5.338;2023-06-10T09:25:35;6.55;;;4.68;;
40827;SDS011;26549;50.918;5.338;2023-06-10T09:28:02;6.15;;;4.13;;
40827;SDS011;26549;50.918;5.338;2023-06-10T09:30:29;8.52;;;4.20;;
40827;SDS011;26549;50.918;5.338;2023-06-10T09:32:57;7.22;;;3.67;;
40827;SDS011;26549;50.918;5.338;2023-06-10T09:35:25;6.03;;;4.40;;
40827;SDS011;26549;50.918;5.338;2023-06-10T09:37:52;5.85;;;4.47;;
40827;SDS011;26549;50.918;5.338;2023-06-10T09:40:19;7.47;;;3.95;;
40827;SDS011;26549;50.918;5.338;2023-06-10T09:42:45;4.93;;;3.70;;
40827;SDS011;26549;50.918;5.338;2023-06-10T09:45:16;5.32;;;3.55;;
40827;SDS011;26549;50.918;5.338;2023-06-10T09:47:45;5.60;;;4.43;;
40827;SDS011;26549;50.918;5.338;2023-06-10T09:50:11;7.15;;;4.28;;
40827;SDS011;26549;50.918;5.338;2023-06-10T09:52:37;5.97;;;3.85;;
40827;SDS011;26549;50.918;5.338;2023-06-10T09:55:04;5.00;;;3.70;;
40827;SDS011;26549;50.918;5.338;2023-06-10T09:57:33;7.90;;;3.30;;
40827;SDS011;26549;50.918;5.338;2023-06-10T10:00:11;5.35;;;3.83;;
40827;SDS011;26549;50.918;5.338;2023-06-10T10:02:51;5.35;;;3.58;;
40827;SDS011;26549;50.918;5.338;2023-06-10T10:05:20;7.35;;;4.32;;
40827;SDS011;26549;50.918;5.338;2023-06-10T10:07:46;7.47;;;4.38;;
40827;SDS011;26549;50.918;5.338;2023-06-10T10:10:16;4.53;;;3.75;;
40827;SDS011;26549;50.918;5.338;2023-06-10T10:12:43;4.10;;;3.50;;
40827;SDS011;26549;50.918;5.338;2023-06-10T10:15:13;6.15;;;3.92;;
40827;SDS011;26549;50.918;5.338;2023-06-10T10:17:46;6.10;;;3.90;;
40827;SDS011;26549;50.918;5.338;2023-06-10T10:20:17;7.93;;;3.83;;
40827;SDS011;26549;50.918;5.338;2023-06-10T10:22:47;5.25;;;3.63;;
40827;SDS011;26549;50.918;5.338;2023-06-10T10:25:23;5.75;;;3.70;;
40827;SDS011;26549;50.918;5.338;2023-06-10T10:28:06;6.72;;;3.50;;
40827;SDS011;26549;50.918;5.338;2023-06-10T10:30:39;8.48;;;3.80;;
40827;SDS011;26549;50.918;5.338;2023-06-10T10:33:12;6.30;;;4.13;;
40827;SDS011;26549;50.918;5.338;2023-06-10T10:35:45;6.60;;;3.22;;
40827;SDS011;26549;50.918;5.338;2023-06-10T10:38:14;6.43;;;3.60;;
40827;SDS011;26549;50.918;5.338;2023-06-10T10:40:40;7.47;;;4.40;;
40827;SDS011;26549;50.918;5.338;2023-06-10T10:43:08;5.28;;;3.58;;
40827;SDS011;26549;50.918;5.338;2023-06-10T10:45:35;8.27;;;3.30;;
40827;SDS011;26549;50.918;5.338;2023-06-10T10:48:04;6.10;;;3.88;;
40827;SDS011;26549;50.918;5.338;2023-06-10T10:50:35;7.82;;;3.33;;
40827;SDS011;26549;50.918;5.338;2023-06-10T10:53:01;5.35;;;3.47;;
40827;SDS011;26549;50.918;5.338;2023-06-10T10:55:28;8.05;;;4.50;;
40827;SDS011;26549;50.918;5.338;2023-06-10T10:58:02;4.47;;;3.30;;
40827;SDS011;26549;50.918;5.338;2023-06-10T11:00:30;10.10;;;3.50;;
40827;SDS011;26549;50.918;5.338;2023-06-10T11:05:35;8.55;;;2.97;;
40827;SDS011;26549;50.918;5.338;2023-06-10T11:08:03;6.20;;;3.45;;
40827;SDS011;26549;50.918;5.338;2023-06-10T11:10:34;5.00;;;3.67;;
40827;SDS011;26549;50.918;5.338;2023-06-10T11:13:08;4.90;;;3.55;;
40827;SDS011;26549;50.918;5.338;2023-06-10T11:15:45;4.15;;;3.22;;
40827;SDS011;26549;50.918;5.338;2023-06-10T11:20:55;8.63;;;3.40;;
40827;SDS011;26549;50.918;5.338;2023-06-10T11:28:37;5.07;;;3.20;;
40827;SDS011;26549;50.918;5.338;2023-06-10T11:31:03;7.72;;;3.63;;
40827;SDS011;26549;50.918;5.338;2023-06-10T11:33:29;6.50;;;3.53;;
40827;SDS011;26549;50.918;5.338;2023-06-10T11:35:56;7.00;;;3.30;;
40827;SDS011;26549;50.918;5.338;2023-06-10T11:38:22;6.43;;;3.63;;
40827;SDS011;26549;50.918;5.338;2023-06-10T11:40:48;4.32;;;3.30;;
40827;SDS011;26549;50.918;5.338;2023-06-10T11:43:18;5.15;;;3.55;;
40827;SDS011;26549;50.918;5.338;2023-06-10T11:45:45;5.63;;;3.78;;
40827;SDS011;26549;50.918;5.338;2023-06-10T11:48:12;5.22;;;2.88;;
40827;SDS011;26549;50.918;5.338;2023-06-10T11:50:38;5.72;;;3.10;;
40827;SDS011;26549;50.918;5.338;2023-06-10T11:53:07;5.80;;;3.25;;
40827;SDS011;26549;50.918;5.338;2023-06-10T11:55:48;4.47;;;3.10;;
40827;SDS011;26549;50.918;5.338;2023-06-10T11:58:16;7.45;;;3.08;;
40827;SDS011;26549;50.918;5.338;2023-06-10T12:00:50;4.88;;;2.70;;
40827;SDS011;26549;50.918;5.338;2023-06-10T12:03:23;3.65;;;3.13;;
40827;SDS011;26549;50.918;5.338;2023-06-10T12:05:57;4.57;;;2.92;;
40827;SDS011;26549;50.918;5.338;2023-06-10T12:08:29;6.82;;;3.13;;
40827;SDS011;26549;50.918;5.338;2023-06-10T12:10:56;6.53;;;2.67;;
40827;SDS011;26549;50.918;5.338;2023-06-10T12:13:22;6.78;;;3.17;;
40827;SDS011;26549;50.918;5.338;2023-06-10T12:15:52;11.55;;;4.30;;
40827;SDS011;26549;50.918;5.338;2023-06-10T12:18:22;4.55;;;2.60;;
40827;SDS011;26549;50.918;5.338;2023-06-10T12:20:48;3.70;;;3.03;;
40827;SDS011;26549;50.918;5.338;2023-06-10T12:23:16;4.07;;;2.92;;
40827;SDS011;26549;50.918;5.338;2023-06-10T12:25:55;4.32;;;3.05;;
40827;SDS011;26549;50.918;5.338;2023-06-10T12:28:23;4.53;;;3.28;;
40827;SDS011;26549;50.918;5.338;2023-06-10T12:30:51;6.90;;;3.85;;
40827;SDS011;26549;50.918;5.338;2023-06-10T12:33:31;4.05;;;3.53;;
40827;SDS011;26549;50.918;5.338;2023-06-10T12:36:00;4.53;;;3.40;;
40827;SDS011;26549;50.918;5.338;2023-06-10T12:38:26;7.70;;;4.18;;
40827;SDS011;26549;50.918;5.338;2023-06-10T12:40:52;3.15;;;2.85;;
40827;SDS011;26549;50.918;5.338;2023-06-10T12:43:25;4.95;;;3.55;;
40827;SDS011;26549;50.918;5.338;2023-06-10T12:45:51;3.45;;;2.95;;
40827;SDS011;26549;50.918;5.338;2023-06-10T12:48:18;4.80;;;3.15;;
40827;SDS011;26549;50.918;5.338;2023-06-10T12:50:50;3.33;;;2.92;;
40827;SDS011;26549;50.918;5.338;2023-06-10T12:53:18;3.50;;;2.60;;
40827;SDS011;26549;50.918;5.338;2023-06-10T12:55:47;4.93;;;3.00;;
40827;SDS011;26549;50.918;5.338;2023-06-10T12:58:13;5.10;;;3.65;;
40827;SDS011;26549;50.918;5.338;2023-06-10T13:00:40;8.55;;;3.63;;
40827;SDS011;26549;50.918;5.338;2023-06-10T13:03:07;4.32;;;3.35;;
40827;SDS011;26549;50.918;5.338;2023-06-10T13:05:35;6.50;;;3.10;;
40827;SDS011;26549;50.918;5.338;2023-06-10T13:08:04;3.92;;;3.40;;
40827;SDS011;26549;50.918;5.338;2023-06-10T13:10:33;4.57;;;3.40;;
40827;SDS011;26549;50.918;5.338;2023-06-10T13:13:00;8.57;;;2.97;;
40827;SDS011;26549;50.918;5.338;2023-06-10T13:15:27;6.10;;;3.22;;
40827;SDS011;26549;50.918;5.338;2023-06-10T13:17:52;5.13;;;3.03;;
40827;SDS011;26549;50.918;5.338;2023-06-10T13:20:18;3.35;;;2.97;;
40827;SDS011;26549;50.918;5.338;2023-06-10T13:22:45;3.72;;;2.75;;
40827;SDS011;26549;50.918;5.338;2023-06-10T13:25:12;5.10;;;3.90;;
40827;SDS011;26549;50.918;5.338;2023-06-10T13:27:38;7.32;;;3.75;;
40827;SDS011;26549;50.918;5.338;2023-06-10T13:30:05;3.97;;;3.55;;
40827;SDS011;26549;50.918;5.338;2023-06-10T13:32:32;4.40;;;3.40;;
40827;SDS011;26549;50.918;5.338;2023-06-10T13:34:57;6.55;;;2.78;;
40827;SDS011;26549;50.918;5.338;2023-06-10T13:37:23;4.95;;;2.97;;
40827;SDS011;26549;50.918;5.338;2023-06-10T13:39:49;4.13;;;2.80;;
40827;SDS011;26549;50.918;5.338;2023-06-10T13:42:16;4.93;;;3.03;;
40827;SDS011;26549;50.918;5.338;2023-06-10T13:44:42;5.47;;;2.58;;
40827;SDS011;26549;50.918;5.338;2023-06-10T13:47:08;3.85;;;2.70;;
40827;SDS011;26549;50.918;5.338;2023-06-10T13:49:34;5.57;;;3.03;;
40827;SDS011;26549;50.918;5.338;2023-06-10T13:52:00;8.13;;;3.38;;
40827;SDS011;26549;50.918;5.338;2023-06-10T13:54:26;8.75;;;3.10;;
40827;SDS011;26549;50.918;5.338;2023-06-10T13:56:52;7.93;;;3.50;;
40827;SDS011;26549;50.918;5.338;2023-06-10T13:59:19;6.85;;;3.50;;
40827;SDS011;26549;50.918;5.338;2023-06-10T14:01:45;7.22;;;3.63;;
40827;SDS011;26549;50.918;5.338;2023-06-10T14:04:11;3.90;;;3.20;;
40827;SDS011;26549;50.918;5.338;2023-06-10T14:06:36;5.57;;;3.05;;
40827;SDS011;26549;50.918;5.338;2023-06-10T14:09:02;2.72;;;2.38;;
40827;SDS011;26549;50.918;5.338;2023-06-10T14:11:29;4.72;;;3.13;;
40827;SDS011;26549;50.918;5.338;2023-06-10T14:13:54;7.07;;;3.22;;
40827;SDS011;26549;50.918;5.338;2023-06-10T14:16:24;4.95;;;3.15;;
40827;SDS011;26549;50.918;5.338;2023-06-10T14:18:50;3.47;;;2.60;;
40827;SDS011;26549;50.918;5.338;2023-06-10T14:21:16;4.65;;;3.10;;
40827;SDS011;26549;50.918;5.338;2023-06-10T14:23:42;5.18;;;2.97;;
40827;SDS011;26549;50.918;5.338;2023-06-10T14:26:08;4.65;;;2.90;;
40827;SDS011;26549;50.918;5.338;2023-06-10T14:28:36;4.55;;;3.15;;
40827;SDS011;26549;50.918;5.338;2023-06-10T14:31:01;7.32;;;2.47;;
40827;SDS011;26549;50.918;5.338;2023-06-10T14:33:27;4.85;;;3.47;;
40827;SDS011;26549;50.918;5.338;2023-06-10T14:35:53;6.63;;;2.88;;
40827;SDS011;26549;50.918;5.338;2023-06-10T14:38:19;5.20;;;2.90;;
40827;SDS011;26549;50.918;5.338;2023-06-10T14:40:45;4.32;;;3.10;;
40827;SDS011;26549;50.918;5.338;2023-06-10T14:43:11;4.10;;;3.05;;
40827;SDS011;26549;50.918;5.338;2023-06-10T14:45:37;4.30;;;2.67;;
40827;SDS011;26549;50.918;5.338;2023-06-10T14:48:05;5.20;;;3.30;;
40827;SDS011;26549;50.918;5.338;2023-06-10T14:50:34;5.95;;;3.00;;
40827;SDS011;26549;50.918;5.338;2023-06-10T14:53:00;3.78;;;2.90;;
40827;SDS011;26549;50.918;5.338;2023-06-10T14:55:26;5.45;;;2.88;;
40827;SDS011;26549;50.918;5.338;2023-06-10T14:57:53;4.15;;;3.03;;
40827;SDS011;26549;50.918;5.338;2023-06-10T15:00:20;6.95;;;3.30;;
40827;SDS011;26549;50.918;5.338;2023-06-10T15:02:48;7.97;;;2.97;;